Jefferson, GA (30549)

12:17 PM EDT on August 29, 2016 (GMT -0400)
The Heritage at Jefferson | | Change Station

Elev 925 ft 34.16 °N, 83.61 °W | Updated 27 seconds ago

Overcast
Overcast
82.2 °F
Feels Like 87 °F
N
1.1
Wind Variable Wind from NE
Gusts 4.9 mph

Today
High -- | Low -- °F
--% Chance of Precip.
Yesterday
High -- | Low -- °F
Precip. -- in
Pressure 30.20 in
Visibility 10.0 miles
Clouds Overcast 4900 ft
Heat Index 87 °F
Dew Point 71 °F
Humidity 69%
Rainfall 0.00 in
Snow Depth Not available.
7:06 AM 8:03 PM
Waning Crescent, 8% visible
METAR KWDR 291555Z AUTO 04003KT 10SM OVC049 27/21 A3020 RMK AO1 LTG DSNT SE
Pressure 30.20 in
Visibility 10.0 miles
Clouds Overcast 4900 ft
Heat Index 87 °F
Dew Point 71 °F
Humidity 69%
Rainfall 0.00 in
Snow Depth Not available.
7:06 AM 8:03 PM
Waning Crescent, 8% visible
METAR KWDR 291555Z AUTO 04003KT 10SM OVC049 27/21 A3020 RMK AO1 LTG DSNT SE

10-Day Weather Forecast

Almanac

Astronomy

Aug. 29, 2016 Rise Set
Actual Time
Civil Twilight
Nautical Twilight
Astronomical Twilight
Moon
Length of Visible Light
Length of Day
Tomorrow will be .
, % of the Moon is Illuminated

Today's Extremes

State Highs State Lows

Community

WunderPhotos

Upload Photos

1,935,871 photos uploaded!

WunderBlog® & News

Nearby

Air Quality

  Air Quality AQ Index Pollutant
Not available.

Snow Depth

Station Depth Elevation

Earthquake Activity

City Distance Mag. Time & Date
Minimum magnitude displayed is 2.5.

Coastal Water Temperatures

Place Temperature

Stations

Nearby Weather Stations

Station Location Temp. Windchill Dew Point Humidity Wind Precip. Elev Updated Type
                   

Watches & Warnings

There are currently no watches in effect.